Terminal Aerodrome Forecast
Issued by NWS

Home | Current Version | Previous Version | Text Only | Print | Product List | Glossary On
Versions: 1 2 3 4 5 6 7 8 9 10 11 12 13 14 15 16 17 18
000
FTUS43 KSGF 272100 AAA
TAFJLN
TAF AMD
KJLN 272119Z 2721/2818 32008KT P6SM SCT008 BKN015 OVC110
      TEMPO 2722/2801 SCT015 BKN050 OVC110
     FM280100 34005KT P6SM FEW150 SCT250=

USA.gov is the U.S. government's official web portal to all federal, state and local government web resources and services.